Time,TemperatureF,DewpointF,PressureIn,WindDirection,WindDirectionDegrees,WindSpeedMPH,WindSpeedGustMPH,Humidity,HourlyPrecipIn,Conditions,Clouds,dailyrainin,SoftwareType,DateUTC
2013-07-06 00:05:00,69.0,69.0,30.18,East,83,1.0,3.0,98,0.00,,,0.00,weatherlink.com 1.10,2013-07-06 04:05:00,
2013-07-06 00:20:00,69.0,69.0,30.18,East,83,0.0,2.0,98,0.00,,,0.00,weatherlink.com 1.10,2013-07-06 04:20:00,
2013-07-06 00:35:00,68.9,68.0,30.18,East,83,0.0,1.0,98,0.00,,,0.00,weatherlink.com 1.10,2013-07-06 04:35:00,
2013-07-06 00:50:00,69.0,69.0,30.18,East,83,0.0,1.0,98,0.00,,,0.00,weatherlink.com 1.10,2013-07-06 04:50:00,
2013-07-06 01:05:00,69.1,69.0,30.17,East,83,0.0,1.0,98,0.00,,,0.00,weatherlink.com 1.10,2013-07-06 05:05:00,
2013-07-06 01:20:00,69.2,69.0,30.16,East,83,0.0,1.0,99,0.00,,,0.00,weatherlink.com 1.10,2013-07-06 05:20:00,
2013-07-06 01:35:00,69.2,69.0,30.16,East,83,0.0,1.0,98,0.00,,,0.00,weatherlink.com 1.10,2013-07-06 05:35:00,
2013-07-06 01:50:00,69.1,69.0,30.16,East,99,0.0,3.0,98,0.00,,,0.00,weatherlink.com 1.10,2013-07-06 05:50:00,
2013-07-06 02:05:00,69.2,69.0,30.16,ESE,119,1.0,5.0,99,0.00,,,0.00,weatherlink.com 1.10,2013-07-06 06:05:00,
2013-07-06 02:20:00,69.5,69.0,30.16,SE,129,0.0,3.0,99,0.00,,,0.00,weatherlink.com 1.10,2013-07-06 06:20:00,
2013-07-06 02:35:00,69.7,69.0,30.15,SE,124,3.0,4.0,99,0.00,,,0.00,weatherlink.com 1.10,2013-07-06 06:35:00,
2013-07-06 02:50:00,69.8,70.0,30.15,SE,134,0.0,5.0,99,0.00,,,0.00,weatherlink.com 1.10,2013-07-06 06:50:00,
2013-07-06 03:05:00,70.0,70.0,30.15,SE,128,0.0,7.0,99,0.00,,,0.00,weatherlink.com 1.10,2013-07-06 07:05:00,
2013-07-06 03:20:00,70.1,70.0,30.15,ESE,121,0.0,3.0,99,0.00,,,0.00,weatherlink.com 1.10,2013-07-06 07:20:00,
2013-07-06 03:35:00,70.2,70.0,30.15,ESE,114,0.0,3.0,99,0.00,,,0.00,weatherlink.com 1.10,2013-07-06 07:35:00,
2013-07-06 03:50:00,70.3,70.0,30.15,SE,143,0.0,3.0,99,0.00,,,0.00,weatherlink.com 1.10,2013-07-06 07:50:00,
2013-07-06 04:05:00,70.4,70.0,30.14,SE,135,1.0,3.0,99,0.00,,,0.00,weatherlink.com 1.10,2013-07-06 08:05:00,
2013-07-06 04:20:00,70.4,70.0,30.14,SSE,155,0.0,3.0,99,0.00,,,0.00,weatherlink.com 1.10,2013-07-06 08:20:00,
2013-07-06 04:35:00,70.5,70.0,30.14,SSE,156,0.0,2.0,99,0.00,,,0.00,weatherlink.com 1.10,2013-07-06 08:35:00,
2013-07-06 04:50:00,70.4,70.0,30.15,South,183,1.0,4.0,98,0.00,,,0.00,weatherlink.com 1.10,2013-07-06 08:50:00,
2013-07-06 05:05:00,70.4,70.0,30.15,South,170,1.0,6.0,98,0.00,,,0.00,weatherlink.com 1.10,2013-07-06 09:05:00,
2013-07-06 05:20:00,70.4,70.0,30.14,SE,135,0.0,4.0,98,0.00,,,0.00,weatherlink.com 1.10,2013-07-06 09:20:00,
2013-07-06 05:35:00,70.4,70.0,30.15,South,170,1.0,6.0,98,0.00,,,0.00,weatherlink.com 1.10,2013-07-06 09:35:00,
2013-07-06 05:50:00,70.5,70.0,30.15,South,180,2.0,5.0,99,0.00,,,0.00,weatherlink.com 1.10,2013-07-06 09:50:00,
2013-07-06 06:05:00,70.5,70.0,30.16,SE,128,2.0,4.0,99,0.00,,,0.00,weatherlink.com 1.10,2013-07-06 10:05:00,
2013-07-06 06:20:00,70.5,70.0,30.16,South,181,1.0,5.0,99,0.00,,,0.00,weatherlink.com 1.10,2013-07-06 10:20:00,
2013-07-06 06:35:00,70.5,70.0,30.16,South,178,1.0,10.0,99,0.00,,,0.00,weatherlink.com 1.10,2013-07-06 10:35:00,
2013-07-06 06:50:00,70.5,70.0,30.16,South,180,0.0,5.0,99,0.00,,,0.00,weatherlink.com 1.10,2013-07-06 10:50:00,
2013-07-06 07:05:00,70.5,70.0,30.17,South,187,2.0,4.0,99,0.00,,,0.00,weatherlink.com 1.10,2013-07-06 11:05:00,
2013-07-06 07:20:00,70.6,70.0,30.17,SSW,196,5.0,7.0,99,0.00,,,0.00,weatherlink.com 1.10,2013-07-06 11:20:00,
2013-07-06 07:35:00,70.7,70.0,30.18,SSW,192,1.0,5.0,99,0.00,,,0.00,weatherlink.com 1.10,2013-07-06 11:35:00,
2013-07-06 07:50:00,70.9,70.0,30.18,SSE,154,2.0,6.0,98,0.00,,,0.00,weatherlink.com 1.10,2013-07-06 11:50:00,
2013-07-06 08:05:00,70.9,70.0,30.18,SSE,159,2.0,6.0,98,0.00,,,0.00,weatherlink.com 1.10,2013-07-06 12:05:00,
2013-07-06 08:20:00,71.1,71.0,30.18,South,181,3.0,3.0,98,0.00,,,0.00,weatherlink.com 1.10,2013-07-06 12:20:00,
2013-07-06 08:35:00,71.4,71.0,30.19,SW,227,5.0,5.0,98,0.00,,,0.00,weatherlink.com 1.10,2013-07-06 12:35:00,
2013-07-06 08:50:00,71.7,71.0,30.19,SW,221,3.0,5.0,98,0.00,,,0.00,weatherlink.com 1.10,2013-07-06 12:50:00,
2013-07-06 09:05:00,72.0,71.0,30.19,South,187,4.0,5.0,97,0.00,,,0.00,weatherlink.com 1.10,2013-07-06 13:05:00,
2013-07-06 09:20:00,71.9,71.0,30.19,SSW,211,4.0,6.0,96,0.00,,,0.00,weatherlink.com 1.10,2013-07-06 13:20:00,
2013-07-06 09:35:00,73.0,72.0,30.18,SW,217,4.0,8.0,95,0.00,,,0.00,weatherlink.com 1.10,2013-07-06 13:35:00,
2013-07-06 09:50:00,74.0,71.0,30.18,SSW,203,4.0,9.0,91,0.00,,,0.00,weatherlink.com 1.10,2013-07-06 13:50:00,
2013-07-06 10:05:00,74.0,72.0,30.18,SW,226,3.0,7.0,92,0.00,,,0.00,weatherlink.com 1.10,2013-07-06 14:05:00,
2013-07-06 10:20:00,75.2,72.0,30.18,South,169,2.0,10.0,89,0.00,,,0.00,weatherlink.com 1.10,2013-07-06 14:20:00,
2013-07-06 10:35:00,75.5,71.0,30.17,SSE,152,6.0,11.0,87,0.00,,,0.00,weatherlink.com 1.10,2013-07-06 14:35:00,
2013-07-06 10:50:00,76.5,72.0,30.17,SSW,206,1.0,8.0,86,0.00,,,0.00,weatherlink.com 1.10,2013-07-06 14:50:00,
2013-07-06 11:05:00,75.6,72.0,30.18,SSE,168,0.0,4.0,88,0.00,,,0.00,weatherlink.com 1.10,2013-07-06 15:05:00,
2013-07-06 11:20:00,74.8,72.0,30.18,SSW,210,2.0,6.0,90,0.00,,,0.00,weatherlink.com 1.10,2013-07-06 15:20:00,
2013-07-06 11:35:00,75.0,73.0,30.18,West,280,1.0,4.0,92,0.00,,,0.00,weatherlink.com 1.10,2013-07-06 15:35:00,
2013-07-06 11:50:00,75.2,72.0,30.18,WNW,289,7.0,9.0,90,0.00,,,0.00,weatherlink.com 1.10,2013-07-06 15:50:00,
2013-07-06 12:05:00,72.4,71.0,30.18,WNW,303,3.0,6.0,96,0.00,,,0.00,weatherlink.com 1.10,2013-07-06 16:05:00,
2013-07-06 12:20:00,72.5,72.0,30.17,NW,314,1.0,3.0,98,0.00,,,0.00,weatherlink.com 1.10,2013-07-06 16:20:00,
2013-07-06 12:36:00,74.4,74.0,30.17,NW,304,1.0,5.0,97,0.00,,,0.00,weatherlink.com 1.10,2013-07-06 16:36:00,
2013-07-06 13:06:00,77.6,74.0,30.15,SSW,208,4.0,4.0,89,0.00,,,0.00,weatherlink.com 1.10,2013-07-06 17:06:00,
2013-07-06 13:21:00,78.4,74.0,30.15,SSW,208,2.0,4.0,85,0.00,,,0.00,weatherlink.com 1.10,2013-07-06 17:21:00,
2013-07-06 13:36:00,76.9,74.0,30.14,WNW,287,4.0,5.0,89,0.00,,,0.00,weatherlink.com 1.10,2013-07-06 17:36:00,
2013-07-06 14:21:00,79.7,73.0,30.13,South,179,5.0,9.0,81,0.00,,,0.00,weatherlink.com 1.10,2013-07-06 18:21:00,
2013-07-06 14:51:00,79.2,73.0,30.12,SSW,200,1.0,6.0,82,0.00,,,0.00,weatherlink.com 1.10,2013-07-06 18:51:00,
2013-07-06 15:21:00,81.4,72.0,30.11,SSW,195,6.0,7.0,73,0.00,,,0.00,weatherlink.com 1.10,2013-07-06 19:21:00,
2013-07-06 15:36:00,82.0,74.0,30.10,SSW,199,3.0,8.0,76,0.00,,,0.00,weatherlink.com 1.10,2013-07-06 19:36:00,
2013-07-06 16:21:00,83.8,73.0,30.07,SE,145,5.0,9.0,71,0.00,,,0.00,weatherlink.com 1.10,2013-07-06 20:21:00,
2013-07-06 16:36:00,81.9,74.0,30.08,SSW,208,2.0,4.0,76,0.00,,,0.00,weatherlink.com 1.10,2013-07-06 20:36:00,
2013-07-06 16:51:00,81.1,73.0,30.07,South,187,3.0,7.0,76,0.00,,,0.00,weatherlink.com 1.10,2013-07-06 20:51:00,
2013-07-06 17:06:00,77.4,73.0,30.08,NW,308,4.0,9.0,86,0.00,,,0.00,weatherlink.com 1.10,2013-07-06 21:06:00,
2013-07-06 17:21:00,75.0,73.0,30.08,West,281,5.0,8.0,93,0.00,,,0.00,weatherlink.com 1.10,2013-07-06 21:21:00,
2013-07-06 17:36:00,75.0,74.0,30.07,WNW,283,3.0,7.0,96,0.00,,,0.00,weatherlink.com 1.10,2013-07-06 21:36:00,
2013-07-06 17:51:00,75.6,74.0,30.06,NW,319,2.0,4.0,95,0.00,,,0.00,weatherlink.com 1.10,2013-07-06 21:51:00,
2013-07-06 18:21:00,78.5,73.0,30.06,NW,317,2.0,3.0,84,0.00,,,0.00,weatherlink.com 1.10,2013-07-06 22:21:00,
2013-07-06 19:06:00,71.8,71.0,30.10,SW,224,4.0,6.0,96,0.00,,,0.00,weatherlink.com 1.10,2013-07-06 23:06:00,
2013-07-06 19:36:00,71.9,71.0,30.10,North,359,2.0,3.0,98,0.00,,,0.00,weatherlink.com 1.10,2013-07-06 23:36:00,
2013-07-06 19:51:00,72.2,72.0,30.11,NNW,344,0.0,4.0,98,0.00,,,0.00,weatherlink.com 1.10,2013-07-06 23:51:00,
2013-07-06 20:21:00,72.1,72.0,30.11,ENE,65,2.0,3.0,98,0.00,,,0.00,weatherlink.com 1.10,2013-07-07 00:21:00,
2013-07-06 20:36:00,72.0,71.0,30.11,ENE,66,0.0,1.0,98,0.00,,,0.00,weatherlink.com 1.10,2013-07-07 00:36:00,
2013-07-06 21:36:00,71.6,71.0,30.11,ENE,66,0.0,1.0,98,0.00,,,0.00,weatherlink.com 1.10,2013-07-07 01:36:00,
2013-07-06 22:06:00,71.8,72.0,30.12,East,96,1.0,5.0,99,0.00,,,0.00,weatherlink.com 1.10,2013-07-07 02:06:00,
2013-07-06 22:21:00,72.0,72.0,30.12,ESE,119,1.0,6.0,99,0.00,,,0.00,weatherlink.com 1.10,2013-07-07 02:21:00,
2013-07-06 22:36:00,72.1,72.0,30.12,SE,127,0.0,4.0,98,0.00,,,0.00,weatherlink.com 1.10,2013-07-07 02:36:00,
2013-07-06 23:22:00,71.9,72.0,30.13,South,183,2.0,6.0,99,0.00,,,0.00,weatherlink.com 1.10,2013-07-07 03:22:00,
2013-07-06 23:37:00,72.0,72.0,30.13,South,191,2.0,4.0,99,0.00,,,0.00,weatherlink.com 1.10,2013-07-07 03:37:00,
2013-07-06 23:52:00,71.9,72.0,30.14,SSW,204,2.0,6.0,99,0.00,,,0.00,weatherlink.com 1.10,2013-07-07 03:52:00,